sensor_id;sensor_type;location;lat;lon;timestamp;pressure;altitude;pressure_sealevel;temperature;humidity
967;BME280;56108;48.730;9.304;2023-03-30T00:00:11;97324.47;;;14.28;66.15
967;BME280;56108;48.730;9.304;2023-03-30T00:02:22;97305.53;;;14.10;68.29
967;BME280;56108;48.730;9.304;2023-03-30T00:04:37;97287.03;;;13.97;69.85
967;BME280;56108;48.730;9.304;2023-03-30T00:06:47;97279.94;;;13.87;71.29
967;BME280;56108;48.730;9.304;2023-03-30T00:08:58;97294.72;;;13.81;71.27
967;BME280;56108;48.730;9.304;2023-03-30T00:11:09;97283.31;;;13.79;70.44
967;BME280;56108;48.730;9.304;2023-03-30T00:13:22;97283.34;;;13.89;70.11
967;BME280;56108;48.730;9.304;2023-03-30T00:15:30;97288.72;;;13.89;70.30
967;BME280;56108;48.730;9.304;2023-03-30T00:17:38;97295.56;;;13.81;70.53
967;BME280;56108;48.730;9.304;2023-03-30T00:19:47;97297.00;;;13.86;70.45
967;BME280;56108;48.730;9.304;2023-03-30T00:21:55;97295.59;;;13.91;69.30
967;BME280;56108;48.730;9.304;2023-03-30T00:24:03;97291.50;;;13.87;69.96
967;BME280;56108;48.730;9.304;2023-03-30T00:26:11;97295.28;;;13.84;69.65
967;BME280;56108;48.730;9.304;2023-03-30T00:28:22;97291.19;;;13.80;69.63
967;BME280;56108;48.730;9.304;2023-03-30T00:30:35;97282.72;;;13.75;70.44
967;BME280;56108;48.730;9.304;2023-03-30T00:32:45;97282.28;;;13.70;71.30
967;BME280;56108;48.730;9.304;2023-03-30T00:34:54;97284.34;;;13.67;70.87
967;BME280;56108;48.730;9.304;2023-03-30T00:37:02;97283.22;;;13.60;72.00
967;BME280;56108;48.730;9.304;2023-03-30T00:39:11;97283.97;;;13.71;71.59
967;BME280;56108;48.730;9.304;2023-03-30T00:41:22;97271.38;;;13.62;72.32
967;BME280;56108;48.730;9.304;2023-03-30T00:45:58;97258.94;;;13.51;72.80
967;BME280;56108;48.730;9.304;2023-03-30T00:48:08;97257.25;;;13.50;72.47
967;BME280;56108;48.730;9.304;2023-03-30T00:50:23;97266.00;;;13.52;73.18
967;BME280;56108;48.730;9.304;2023-03-30T00:52:34;97255.81;;;13.46;73.69
967;BME280;56108;48.730;9.304;2023-03-30T00:54:45;97248.25;;;13.51;72.08
967;BME280;56108;48.730;9.304;2023-03-30T00:56:53;97239.41;;;13.51;72.86
967;BME280;56108;48.730;9.304;2023-03-30T00:59:07;97236.28;;;13.46;72.94
967;BME280;56108;48.730;9.304;2023-03-30T01:01:16;97242.00;;;13.41;73.03
967;BME280;56108;48.730;9.304;2023-03-30T01:03:31;97232.44;;;13.39;73.36
967;BME280;56108;48.730;9.304;2023-03-30T01:05:42;97238.38;;;13.42;73.12
967;BME280;56108;48.730;9.304;2023-03-30T01:07:52;97228.19;;;13.36;74.24
967;BME280;56108;48.730;9.304;2023-03-30T01:10:03;97232.75;;;13.45;73.21
967;BME280;56108;48.730;9.304;2023-03-30T01:12:12;97233.50;;;13.47;72.73
967;BME280;56108;48.730;9.304;2023-03-30T01:14:25;97234.78;;;13.53;72.13
967;BME280;56108;48.730;9.304;2023-03-30T01:16:41;97237.56;;;13.51;72.52
967;BME280;56108;48.730;9.304;2023-03-30T01:18:58;97224.88;;;13.44;72.97
967;BME280;56108;48.730;9.304;2023-03-30T01:21:53;97208.78;;;13.34;74.12
967;BME280;56108;48.730;9.304;2023-03-30T01:24:22;97209.19;;;13.29;75.66
967;BME280;56108;48.730;9.304;2023-03-30T01:26:46;97214.84;;;13.15;76.73
967;BME280;56108;48.730;9.304;2023-03-30T01:29:06;97217.06;;;13.10;77.65
967;BME280;56108;48.730;9.304;2023-03-30T01:31:50;97231.78;;;13.04;77.31
967;BME280;56108;48.730;9.304;2023-03-30T01:34:25;97245.50;;;13.11;77.33
967;BME280;56108;48.730;9.304;2023-03-30T01:37:03;97261.44;;;13.01;78.51
967;BME280;56108;48.730;9.304;2023-03-30T01:39:39;97283.41;;;13.05;78.58
967;BME280;56108;48.730;9.304;2023-03-30T01:41:57;97269.66;;;13.30;79.69
967;BME280;56108;48.730;9.304;2023-03-30T01:44:14;97256.28;;;13.51;80.52
967;BME280;56108;48.730;9.304;2023-03-30T01:46:34;97253.47;;;13.22;84.01
967;BME280;56108;48.730;9.304;2023-03-30T01:48:51;97254.81;;;13.38;84.61
967;BME280;56108;48.730;9.304;2023-03-30T01:51:10;97249.88;;;13.33;86.46
967;BME280;56108;48.730;9.304;2023-03-30T01:53:26;97228.88;;;13.07;88.61
967;BME280;56108;48.730;9.304;2023-03-30T01:55:40;97219.16;;;13.06;90.38
967;BME280;56108;48.730;9.304;2023-03-30T01:57:56;97226.00;;;12.99;92.96
967;BME280;56108;48.730;9.304;2023-03-30T02:00:16;97218.38;;;12.95;95.04
967;BME280;56108;48.730;9.304;2023-03-30T02:02:29;97232.19;;;13.00;98.10
967;BME280;56108;48.730;9.304;2023-03-30T02:04:40;97244.56;;;13.01;98.27
967;BME280;56108;48.730;9.304;2023-03-30T02:06:55;97247.56;;;12.87;99.11
967;BME280;56108;48.730;9.304;2023-03-30T02:09:07;97252.31;;;12.83;99.70
967;BME280;56108;48.730;9.304;2023-03-30T02:11:20;97243.06;;;12.87;99.11
967;BME280;56108;48.730;9.304;2023-03-30T02:13:32;97244.97;;;12.96;98.10
967;BME280;56108;48.730;9.304;2023-03-30T02:15:43;97247.34;;;12.99;98.28
967;BME280;56108;48.730;9.304;2023-03-30T02:17:52;97247.31;;;12.90;99.60
967;BME280;56108;48.730;9.304;2023-03-30T02:20:01;97249.31;;;12.97;99.31
967;BME280;56108;48.730;9.304;2023-03-30T02:22:13;97256.03;;;12.92;100.00
967;BME280;56108;48.730;9.304;2023-03-30T02:24:27;97260.66;;;12.90;100.00
967;BME280;56108;48.730;9.304;2023-03-30T02:26:40;97250.09;;;12.88;100.00
967;BME280;56108;48.730;9.304;2023-03-30T02:28:50;97253.69;;;12.98;100.00
967;BME280;56108;48.730;9.304;2023-03-30T02:30:58;97260.72;;;12.99;100.00
967;BME280;56108;48.730;9.304;2023-03-30T02:33:09;97268.22;;;13.05;100.00
967;BME280;56108;48.730;9.304;2023-03-30T02:35:46;97267.41;;;12.94;100.00
967;BME280;56108;48.730;9.304;2023-03-30T02:38:27;97270.00;;;12.84;100.00
967;BME280;56108;48.730;9.304;2023-03-30T02:40:47;97272.13;;;12.80;100.00
967;BME280;56108;48.730;9.304;2023-03-30T02:43:22;97268.44;;;12.61;100.00
967;BME280;56108;48.730;9.304;2023-03-30T02:45:39;97268.19;;;12.64;100.00
967;BME280;56108;48.730;9.304;2023-03-30T02:47:59;97268.06;;;12.65;100.00
967;BME280;56108;48.730;9.304;2023-03-30T02:50:16;97269.13;;;12.74;100.00
967;BME280;56108;48.730;9.304;2023-03-30T02:52:39;97267.59;;;12.60;100.00
967;BME280;56108;48.730;9.304;2023-03-30T02:54:51;97263.28;;;12.48;100.00
967;BME280;56108;48.730;9.304;2023-03-30T02:57:14;97259.63;;;12.49;100.00
967;BME280;56108;48.730;9.304;2023-03-30T02:59:35;97256.19;;;12.58;100.00
967;BME280;56108;48.730;9.304;2023-03-30T03:01:49;97254.22;;;12.60;100.00
967;BME280;56108;48.730;9.304;2023-03-30T03:03:59;97249.78;;;12.49;100.00
967;BME280;56108;48.730;9.304;2023-03-30T03:06:20;97238.81;;;12.64;100.00
967;BME280;56108;48.730;9.304;2023-03-30T03:08:35;97222.72;;;12.54;100.00
967;BME280;56108;48.730;9.304;2023-03-30T03:10:47;97229.50;;;12.58;100.00
967;BME280;56108;48.730;9.304;2023-03-30T03:12:55;97222.25;;;12.49;100.00
967;BME280;56108;48.730;9.304;2023-03-30T03:15:08;97209.72;;;12.28;100.00
967;BME280;56108;48.730;9.304;2023-03-30T03:17:27;97196.88;;;12.22;100.00
967;BME280;56108;48.730;9.304;2023-03-30T03:19:40;97187.94;;;12.12;100.00
967;BME280;56108;48.730;9.304;2023-03-30T03:21:50;97163.03;;;11.91;100.00
967;BME280;56108;48.730;9.304;2023-03-30T03:23:59;97159.75;;;11.87;100.00
967;BME280;56108;48.730;9.304;2023-03-30T03:26:26;97149.09;;;11.87;100.00
967;BME280;56108;48.730;9.304;2023-03-30T03:28:41;97145.47;;;11.77;100.00
967;BME280;56108;48.730;9.304;2023-03-30T03:30:53;97162.66;;;11.73;100.00
967;BME280;56108;48.730;9.304;2023-03-30T03:33:02;97144.34;;;11.80;100.00
967;BME280;56108;48.730;9.304;2023-03-30T03:35:12;97145.13;;;11.70;100.00
967;BME280;56108;48.730;9.304;2023-03-30T03:37:20;97142.34;;;11.61;100.00
967;BME280;56108;48.730;9.304;2023-03-30T03:39:28;97143.53;;;11.68;100.00
967;BME280;56108;48.730;9.304;2023-03-30T03:41:49;97144.28;;;11.70;100.00
967;BME280;56108;48.730;9.304;2023-03-30T03:44:01;97134.34;;;11.61;100.00
967;BME280;56108;48.730;9.304;2023-03-30T03:46:13;97129.75;;;11.52;100.00
967;BME280;56108;48.730;9.304;2023-03-30T03:48:23;97126.75;;;11.45;100.00
967;BME280;56108;48.730;9.304;2023-03-30T03:50:32;97143.91;;;11.52;100.00
967;BME280;56108;48.730;9.304;2023-03-30T03:52:41;97152.53;;;11.44;100.00
967;BME280;56108;48.730;9.304;2023-03-30T03:54:50;97143.31;;;11.37;100.00
967;BME280;56108;48.730;9.304;2023-03-30T03:57:00;97151.09;;;11.29;100.00
967;BME280;56108;48.730;9.304;2023-03-30T03:59:12;97146.63;;;11.30;100.00
967;BME280;56108;48.730;9.304;2023-03-30T04:01:27;97131.97;;;11.24;100.00
967;BME280;56108;48.730;9.304;2023-03-30T04:03:35;97131.00;;;11.25;100.00
967;BME280;56108;48.730;9.304;2023-03-30T04:05:46;97132.22;;;11.21;100.00
967;BME280;56108;48.730;9.304;2023-03-30T04:07:54;97127.63;;;11.23;100.00
967;BME280;56108;48.730;9.304;2023-03-30T04:10:02;97116.22;;;11.21;100.00
967;BME280;56108;48.730;9.304;2023-03-30T04:12:20;97097.72;;;11.19;100.00
967;BME280;56108;48.730;9.304;2023-03-30T04:14:48;97100.16;;;11.22;100.00
967;BME280;56108;48.730;9.304;2023-03-30T04:17:26;97091.66;;;11.29;100.00
967;BME280;56108;48.730;9.304;2023-03-30T04:19:54;97083.78;;;11.38;100.00
967;BME280;56108;48.730;9.304;2023-03-30T04:22:23;97080.38;;;11.36;100.00
967;BME280;56108;48.730;9.304;2023-03-30T04:24:41;97064.50;;;11.35;100.00
967;BME280;56108;48.730;9.304;2023-03-30T04:27:16;97066.53;;;11.42;100.00
967;BME280;56108;48.730;9.304;2023-03-30T04:29:49;97064.34;;;11.47;100.00
967;BME280;56108;48.730;9.304;2023-03-30T04:32:13;97068.84;;;11.47;100.00
967;BME280;56108;48.730;9.304;2023-03-30T04:34:45;97065.94;;;11.50;100.00
967;BME280;56108;48.730;9.304;2023-03-30T04:37:12;97040.84;;;11.53;100.00
967;BME280;56108;48.730;9.304;2023-03-30T04:39:41;97035.03;;;11.47;100.00
967;BME280;56108;48.730;9.304;2023-03-30T04:42:03;97039.66;;;11.45;100.00
967;BME280;56108;48.730;9.304;2023-03-30T04:44:30;97028.03;;;11.46;100.00
967;BME280;56108;48.730;9.304;2023-03-30T04:46:56;97030.78;;;11.56;100.00
967;BME280;56108;48.730;9.304;2023-03-30T04:49:25;97029.09;;;11.55;100.00
967;BME280;56108;48.730;9.304;2023-03-30T04:51:55;97031.75;;;11.55;100.00
967;BME280;56108;48.730;9.304;2023-03-30T04:54:29;97020.31;;;11.43;100.00
967;BME280;56108;48.730;9.304;2023-03-30T04:56:55;97016.84;;;11.53;100.00
967;BME280;56108;48.730;9.304;2023-03-30T04:59:44;97017.63;;;11.43;100.00
967;BME280;56108;48.730;9.304;2023-03-30T05:02:01;97024.53;;;11.46;100.00
967;BME280;56108;48.730;9.304;2023-03-30T05:04:30;97036.34;;;11.53;100.00
967;BME280;56108;48.730;9.304;2023-03-30T05:07:19;97040.13;;;11.50;100.00
967;BME280;56108;48.730;9.304;2023-03-30T05:09:27;97035.88;;;11.48;100.00
967;BME280;56108;48.730;9.304;2023-03-30T05:11:54;97029.59;;;11.49;100.00
967;BME280;56108;48.730;9.304;2023-03-30T05:14:31;97028.41;;;11.42;100.00
967;BME280;56108;48.730;9.304;2023-03-30T05:16:58;97015.31;;;11.50;100.00
967;BME280;56108;48.730;9.304;2023-03-30T05:19:15;97008.03;;;11.52;100.00
967;BME280;56108;48.730;9.304;2023-03-30T05:21:42;97005.97;;;11.56;100.00
967;BME280;56108;48.730;9.304;2023-03-30T05:24:13;97005.22;;;11.54;100.00
967;BME280;56108;48.730;9.304;2023-03-30T05:26:50;97009.41;;;11.67;100.00
967;BME280;56108;48.730;9.304;2023-03-30T05:29:00;97007.66;;;11.57;100.00
967;BME280;56108;48.730;9.304;2023-03-30T05:31:15;97006.94;;;11.55;100.00
967;BME280;56108;48.730;9.304;2023-03-30T05:33:42;97012.84;;;11.58;100.00
967;BME280;56108;48.730;9.304;2023-03-30T05:36:19;97003.28;;;11.56;100.00
967;BME280;56108;48.730;9.304;2023-03-30T05:38:43;96995.75;;;11.61;100.00
967;BME280;56108;48.730;9.304;2023-03-30T05:41:31;97004.22;;;11.66;100.00
967;BME280;56108;48.730;9.304;2023-03-30T05:43:51;97002.47;;;11.76;100.00
967;BME280;56108;48.730;9.304;2023-03-30T05:46:21;97011.56;;;11.73;100.00
967;BME280;56108;48.730;9.304;2023-03-30T05:48:38;97001.69;;;11.64;100.00
967;BME280;56108;48.730;9.304;2023-03-30T05:51:05;96994.91;;;11.60;100.00
967;BME280;56108;48.730;9.304;2023-03-30T05:53:23;96989.69;;;11.59;100.00
967;BME280;56108;48.730;9.304;2023-03-30T05:55:52;96987.78;;;11.61;100.00
967;BME280;56108;48.730;9.304;2023-03-30T05:58:29;96999.50;;;11.58;100.00
967;BME280;56108;48.730;9.304;2023-03-30T06:00:59;97001.09;;;11.61;100.00
967;BME280;56108;48.730;9.304;2023-03-30T06:03:15;96995.91;;;11.59;100.00
967;BME280;56108;48.730;9.304;2023-03-30T06:05:23;97012.69;;;11.71;100.00
967;BME280;56108;48.730;9.304;2023-03-30T06:07:34;97016.44;;;11.68;100.00
967;BME280;56108;48.730;9.304;2023-03-30T06:09:48;97027.94;;;11.69;100.00
967;BME280;56108;48.730;9.304;2023-03-30T06:12:02;97034.25;;;11.68;100.00
967;BME280;56108;48.730;9.304;2023-03-30T06:14:15;97031.47;;;11.69;100.00
967;BME280;56108;48.730;9.304;2023-03-30T06:16:44;97037.75;;;11.68;100.00
967;BME280;56108;48.730;9.304;2023-03-30T06:18:53;97051.94;;;11.69;100.00
967;BME280;56108;48.730;9.304;2023-03-30T06:21:03;97056.53;;;11.67;100.00
967;BME280;56108;48.730;9.304;2023-03-30T06:23:42;97065.72;;;11.74;100.00
967;BME280;56108;48.730;9.304;2023-03-30T06:25:55;97073.25;;;11.80;100.00
967;BME280;56108;48.730;9.304;2023-03-30T06:28:07;97066.81;;;11.83;100.00
967;BME280;56108;48.730;9.304;2023-03-30T06:30:20;97063.06;;;11.74;100.00
967;BME280;56108;48.730;9.304;2023-03-30T06:32:32;97078.19;;;11.85;100.00
967;BME280;56108;48.730;9.304;2023-03-30T06:34:41;97068.00;;;11.90;100.00
967;BME280;56108;48.730;9.304;2023-03-30T06:36:51;97075.00;;;12.02;100.00
967;BME280;56108;48.730;9.304;2023-03-30T06:39:02;97078.38;;;12.04;100.00
967;BME280;56108;48.730;9.304;2023-03-30T06:41:11;97087.34;;;12.03;100.00
967;BME280;56108;48.730;9.304;2023-03-30T06:43:24;97095.25;;;11.93;100.00
967;BME280;56108;48.730;9.304;2023-03-30T06:45:42;97086.63;;;12.01;100.00
967;BME280;56108;48.730;9.304;2023-03-30T06:47:50;97092.53;;;12.05;100.00
967;BME280;56108;48.730;9.304;2023-03-30T06:49:59;97083.13;;;12.21;100.00
967;BME280;56108;48.730;9.304;2023-03-30T06:52:28;97104.47;;;12.21;100.00
967;BME280;56108;48.730;9.304;2023-03-30T06:54:36;97109.69;;;12.44;100.00
967;BME280;56108;48.730;9.304;2023-03-30T06:56:45;97118.72;;;12.52;100.00
967;BME280;56108;48.730;9.304;2023-03-30T06:58:54;97143.63;;;12.53;100.00
967;BME280;56108;48.730;9.304;2023-03-30T07:01:12;97142.03;;;12.71;100.00
967;BME280;56108;48.730;9.304;2023-03-30T07:03:41;97164.16;;;13.04;100.00
967;BME280;56108;48.730;9.304;2023-03-30T07:05:58;97180.19;;;13.04;100.00
967;BME280;56108;48.730;9.304;2023-03-30T07:08:10;97192.00;;;13.01;100.00
967;BME280;56108;48.730;9.304;2023-03-30T07:10:27;97194.47;;;12.93;100.00
967;BME280;56108;48.730;9.304;2023-03-30T07:12:38;97184.38;;;12.97;100.00
967;BME280;56108;48.730;9.304;2023-03-30T07:14:50;97191.94;;;12.92;100.00
967;BME280;56108;48.730;9.304;2023-03-30T07:17:01;97204.81;;;12.87;100.00
967;BME280;56108;48.730;9.304;2023-03-30T07:19:09;97209.13;;;12.78;100.00
967;BME280;56108;48.730;9.304;2023-03-30T07:21:17;97216.28;;;12.77;100.00
967;BME280;56108;48.730;9.304;2023-03-30T07:23:25;97220.63;;;12.78;100.00
967;BME280;56108;48.730;9.304;2023-03-30T07:25:33;97219.94;;;12.76;100.00
967;BME280;56108;48.730;9.304;2023-03-30T07:27:49;97226.56;;;12.82;100.00
967;BME280;56108;48.730;9.304;2023-03-30T07:29:57;97229.53;;;12.79;100.00
967;BME280;56108;48.730;9.304;2023-03-30T07:32:25;97236.81;;;12.77;100.00
967;BME280;56108;48.730;9.304;2023-03-30T07:34:34;97241.81;;;12.70;100.00
967;BME280;56108;48.730;9.304;2023-03-30T07:36:42;97244.03;;;12.65;100.00
967;BME280;56108;48.730;9.304;2023-03-30T07:38:51;97238.34;;;12.59;100.00
967;BME280;56108;48.730;9.304;2023-03-30T07:41:00;97232.94;;;12.49;100.00
967;BME280;56108;48.730;9.304;2023-03-30T07:43:09;97235.22;;;12.53;100.00
967;BME280;56108;48.730;9.304;2023-03-30T07:45:18;97222.34;;;12.47;100.00
967;BME280;56108;48.730;9.304;2023-03-30T07:47:29;97208.69;;;12.41;100.00
967;BME280;56108;48.730;9.304;2023-03-30T07:49:37;97204.25;;;12.30;100.00
967;BME280;56108;48.730;9.304;2023-03-30T07:51:49;97189.84;;;12.21;100.00
967;BME280;56108;48.730;9.304;2023-03-30T07:54:05;97178.44;;;12.19;100.00
967;BME280;56108;48.730;9.304;2023-03-30T07:56:29;97193.91;;;12.37;100.00
967;BME280;56108;48.730;9.304;2023-03-30T07:58:38;97182.19;;;12.28;100.00
967;BME280;56108;48.730;9.304;2023-03-30T08:00:47;97178.53;;;12.29;100.00
967;BME280;56108;48.730;9.304;2023-03-30T08:03:21;97166.03;;;12.30;100.00
967;BME280;56108;48.730;9.304;2023-03-30T08:05:31;97168.84;;;12.28;100.00
967;BME280;56108;48.730;9.304;2023-03-30T08:07:51;97167.34;;;12.35;100.00
967;BME280;56108;48.730;9.304;2023-03-30T08:10:09;97169.81;;;12.27;100.00
967;BME280;56108;48.730;9.304;2023-03-30T08:12:17;97181.91;;;12.31;100.00
967;BME280;56108;48.730;9.304;2023-03-30T08:14:25;97186.25;;;12.43;100.00
967;BME280;56108;48.730;9.304;2023-03-30T08:16:34;97192.34;;;12.34;100.00
967;BME280;56108;48.730;9.304;2023-03-30T08:18:44;97208.22;;;12.36;100.00
967;BME280;56108;48.730;9.304;2023-03-30T08:20:53;97224.84;;;12.39;100.00
967;BME280;56108;48.730;9.304;2023-03-30T08:23:01;97258.31;;;12.43;100.00
967;BME280;56108;48.730;9.304;2023-03-30T08:25:09;97252.75;;;12.35;100.00
967;BME280;56108;48.730;9.304;2023-03-30T08:27:17;97262.75;;;12.22;100.00
967;BME280;56108;48.730;9.304;2023-03-30T08:29:25;97256.53;;;12.21;100.00
967;BME280;56108;48.730;9.304;2023-03-30T08:31:35;97271.97;;;12.07;100.00
967;BME280;56108;48.730;9.304;2023-03-30T08:33:46;97275.59;;;12.17;100.00
967;BME280;56108;48.730;9.304;2023-03-30T08:35:54;97267.13;;;12.12;100.00
967;BME280;56108;48.730;9.304;2023-03-30T08:38:02;97244.59;;;11.93;100.00
967;BME280;56108;48.730;9.304;2023-03-30T08:40:11;97247.59;;;12.00;100.00
967;BME280;56108;48.730;9.304;2023-03-30T08:45:07;97247.47;;;12.13;100.00
967;BME280;56108;48.730;9.304;2023-03-30T08:47:19;97249.88;;;12.27;100.00
967;BME280;56108;48.730;9.304;2023-03-30T08:49:36;97267.09;;;12.23;100.00
967;BME280;56108;48.730;9.304;2023-03-30T08:51:47;97266.34;;;12.32;100.00
967;BME280;56108;48.730;9.304;2023-03-30T08:54:03;97272.59;;;12.42;100.00
967;BME280;56108;48.730;9.304;2023-03-30T08:56:15;97266.88;;;12.47;100.00
967;BME280;56108;48.730;9.304;2023-03-30T08:58:31;97250.06;;;12.35;100.00
967;BME280;56108;48.730;9.304;2023-03-30T09:00:48;97241.56;;;12.41;100.00
967;BME280;56108;48.730;9.304;2023-03-30T09:03:07;97229.41;;;12.48;100.00
967;BME280;56108;48.730;9.304;2023-03-30T09:05:27;97221.66;;;12.45;100.00
967;BME280;56108;48.730;9.304;2023-03-30T09:07:46;97212.84;;;12.34;100.00
967;BME280;56108;48.730;9.304;2023-03-30T09:09:59;97220.66;;;12.14;100.00
967;BME280;56108;48.730;9.304;2023-03-30T09:12:14;97212.34;;;11.96;100.00
967;BME280;56108;48.730;9.304;2023-03-30T09:14:31;97199.53;;;11.90;100.00
967;BME280;56108;48.730;9.304;2023-03-30T09:16:45;97186.56;;;11.86;100.00
967;BME280;56108;48.730;9.304;2023-03-30T09:18:58;97180.50;;;11.61;100.00
967;BME280;56108;48.730;9.304;2023-03-30T09:21:12;97168.41;;;11.35;100.00
967;BME280;56108;48.730;9.304;2023-03-30T09:23:20;97146.25;;;11.34;100.00
967;BME280;56108;48.730;9.304;2023-03-30T09:25:32;97126.75;;;11.45;100.00
967;BME280;56108;48.730;9.304;2023-03-30T09:27:49;97137.16;;;11.37;100.00
967;BME280;56108;48.730;9.304;2023-03-30T09:30:06;97121.31;;;11.24;100.00
967;BME280;56108;48.730;9.304;2023-03-30T09:32:26;97089.50;;;11.22;100.00
967;BME280;56108;48.730;9.304;2023-03-30T09:34:44;97086.09;;;11.20;100.00
967;BME280;56108;48.730;9.304;2023-03-30T09:37:00;97098.06;;;11.26;100.00
967;BME280;56108;48.730;9.304;2023-03-30T09:39:17;97127.59;;;11.45;100.00
967;BME280;56108;48.730;9.304;2023-03-30T09:41:38;97146.94;;;11.59;100.00
967;BME280;56108;48.730;9.304;2023-03-30T09:43:51;97178.91;;;11.59;100.00
967;BME280;56108;48.730;9.304;2023-03-30T09:46:05;97191.19;;;11.50;100.00
967;BME280;56108;48.730;9.304;2023-03-30T09:48:14;97197.00;;;11.44;100.00
967;BME280;56108;48.730;9.304;2023-03-30T09:50:24;97192.88;;;11.51;100.00
967;BME280;56108;48.730;9.304;2023-03-30T09:52:38;97203.88;;;11.58;100.00
967;BME280;56108;48.730;9.304;2023-03-30T09:54:46;97215.88;;;11.63;100.00
967;BME280;56108;48.730;9.304;2023-03-30T09:56:57;97216.72;;;11.75;100.00
967;BME280;56108;48.730;9.304;2023-03-30T09:59:20;97219.03;;;11.91;100.00
967;BME280;56108;48.730;9.304;2023-03-30T10:01:37;97221.16;;;12.08;100.00
967;BME280;56108;48.730;9.304;2023-03-30T10:04:05;97242.59;;;12.18;100.00
967;BME280;56108;48.730;9.304;2023-03-30T10:06:17;97258.00;;;12.14;100.00
967;BME280;56108;48.730;9.304;2023-03-30T10:08:30;97255.34;;;12.14;100.00
967;BME280;56108;48.730;9.304;2023-03-30T10:10:38;97248.56;;;12.10;100.00
967;BME280;56108;48.730;9.304;2023-03-30T10:12:48;97245.50;;;12.15;100.00
967;BME280;56108;48.730;9.304;2023-03-30T10:15:01;97261.88;;;12.10;100.00
967;BME280;56108;48.730;9.304;2023-03-30T10:17:17;97251.81;;;12.14;100.00
967;BME280;56108;48.730;9.304;2023-03-30T10:19:29;97245.16;;;12.19;100.00
967;BME280;56108;48.730;9.304;2023-03-30T10:21:44;97248.00;;;12.39;100.00
967;BME280;56108;48.730;9.304;2023-03-30T10:24:04;97267.25;;;12.53;100.00
967;BME280;56108;48.730;9.304;2023-03-30T10:26:17;97260.94;;;12.54;100.00
967;BME280;56108;48.730;9.304;2023-03-30T10:28:26;97250.97;;;12.57;100.00
967;BME280;56108;48.730;9.304;2023-03-30T10:30:37;97254.69;;;12.65;100.00
967;BME280;56108;48.730;9.304;2023-03-30T10:32:45;97246.25;;;12.81;100.00
967;BME280;56108;48.730;9.304;2023-03-30T10:34:56;97255.91;;;12.93;100.00
967;BME280;56108;48.730;9.304;2023-03-30T10:37:11;97256.19;;;13.11;100.00
967;BME280;56108;48.730;9.304;2023-03-30T10:39:28;97254.28;;;13.02;100.00
967;BME280;56108;48.730;9.304;2023-03-30T10:41:38;97248.28;;;13.10;100.00
967;BME280;56108;48.730;9.304;2023-03-30T10:43:48;97248.97;;;13.23;100.00
967;BME280;56108;48.730;9.304;2023-03-30T10:45:58;97248.97;;;13.23;100.00
967;BME280;56108;48.730;9.304;2023-03-30T10:48:39;97250.09;;;13.09;100.00
967;BME280;56108;48.730;9.304;2023-03-30T10:50:56;97259.38;;;13.05;100.00
967;BME280;56108;48.730;9.304;2023-03-30T10:53:21;97249.31;;;13.18;100.00
967;BME280;56108;48.730;9.304;2023-03-30T10:55:41;97258.03;;;12.99;100.00
967;BME280;56108;48.730;9.304;2023-03-30T10:57:58;97243.34;;;13.05;100.00
967;BME280;56108;48.730;9.304;2023-03-30T11:03:02;97251.78;;;13.21;100.00
967;BME280;56108;48.730;9.304;2023-03-30T11:05:16;97248.72;;;13.26;100.00
967;BME280;56108;48.730;9.304;2023-03-30T11:07:32;97248.69;;;13.56;100.00
967;BME280;56108;48.730;9.304;2023-03-30T11:09:46;97248.06;;;13.64;100.00
967;BME280;56108;48.730;9.304;2023-03-30T11:12:03;97246.75;;;13.58;100.00
967;BME280;56108;48.730;9.304;2023-03-30T11:14:17;97239.13;;;13.54;100.00
967;BME280;56108;48.730;9.304;2023-03-30T11:16:34;97222.41;;;13.31;100.00
967;BME280;56108;48.730;9.304;2023-03-30T11:18:51;97223.97;;;13.13;100.00
967;BME280;56108;48.730;9.304;2023-03-30T11:21:04;97213.97;;;13.05;100.00
967;BME280;56108;48.730;9.304;2023-03-30T11:23:17;97226.66;;;13.13;100.00
967;BME280;56108;48.730;9.304;2023-03-30T11:25:31;97210.16;;;13.28;100.00
967;BME280;56108;48.730;9.304;2023-03-30T11:27:50;97213.69;;;13.29;100.00
967;BME280;56108;48.730;9.304;2023-03-30T11:30:07;97220.69;;;13.51;100.00
967;BME280;56108;48.730;9.304;2023-03-30T11:32:24;97234.53;;;13.66;100.00
967;BME280;56108;48.730;9.304;2023-03-30T11:34:39;97228.88;;;13.90;100.00
967;BME280;56108;48.730;9.304;2023-03-30T11:36:58;97228.06;;;14.08;100.00
967;BME280;56108;48.730;9.304;2023-03-30T11:39:12;97238.22;;;14.24;100.00
967;BME280;56108;48.730;9.304;2023-03-30T11:41:41;97245.91;;;14.48;100.00
967;BME280;56108;48.730;9.304;2023-03-30T11:43:53;97254.53;;;14.81;100.00
967;BME280;56108;48.730;9.304;2023-03-30T11:46:06;97266.75;;;15.22;100.00
967;BME280;56108;48.730;9.304;2023-03-30T11:48:31;97269.44;;;15.32;100.00
967;BME280;56108;48.730;9.304;2023-03-30T11:50:55;97253.78;;;15.18;100.00
967;BME280;56108;48.730;9.304;2023-03-30T11:53:17;97244.50;;;14.93;100.00
967;BME280;56108;48.730;9.304;2023-03-30T11:55:45;97246.91;;;15.05;100.00
967;BME280;56108;48.730;9.304;2023-03-30T11:58:09;97252.69;;;14.91;100.00
967;BME280;56108;48.730;9.304;2023-03-30T12:02:45;97261.25;;;14.56;100.00
967;BME280;56108;48.730;9.304;2023-03-30T12:05:02;97253.41;;;14.64;100.00
967;BME280;56108;48.730;9.304;2023-03-30T12:07:29;97268.06;;;14.70;100.00
967;BME280;56108;48.730;9.304;2023-03-30T12:09:40;97268.22;;;14.78;100.00
967;BME280;56108;48.730;9.304;2023-03-30T12:12:04;97269.91;;;14.79;100.00
967;BME280;56108;48.730;9.304;2023-03-30T12:14:36;97277.91;;;15.18;100.00
967;BME280;56108;48.730;9.304;2023-03-30T12:16:53;97278.00;;;15.45;100.00
967;BME280;56108;48.730;9.304;2023-03-30T12:19:10;97281.00;;;15.23;100.00
967;BME280;56108;48.730;9.304;2023-03-30T12:21:28;97278.88;;;15.46;100.00
967;BME280;56108;48.730;9.304;2023-03-30T12:23:40;97280.81;;;15.44;100.00